createdAt,value
2023-04-23T00:01:47.336Z,100.00
2023-04-23T00:04:19.102Z,100.00
2023-04-23T00:06:47.168Z,100.00
2023-04-23T00:09:15.953Z,100.00
2023-04-23T00:11:42.725Z,100.00
2023-04-23T00:14:09.540Z,100.00
2023-04-23T00:16:36.400Z,100.00
2023-04-23T00:19:03.370Z,100.00
2023-04-23T00:21:29.878Z,100.00
2023-04-23T00:23:56.345Z,100.00
2023-04-23T00:26:22.778Z,100.00
2023-04-23T00:28:49.273Z,100.00
2023-04-23T00:31:15.822Z,100.00
2023-04-23T00:33:42.268Z,100.00
2023-04-23T00:36:09.100Z,100.00
2023-04-23T00:38:35.560Z,100.00
2023-04-23T00:41:02.002Z,100.00
2023-04-23T00:43:28.605Z,100.00
2023-04-23T00:45:55.569Z,100.00
2023-04-23T00:48:22.294Z,100.00
2023-04-23T00:50:48.731Z,100.00
2023-04-23T00:53:15.407Z,100.00
2023-04-23T00:55:42.316Z,100.00
2023-04-23T00:58:08.858Z,100.00
2023-04-23T01:00:44.594Z,100.00
2023-04-23T01:03:11.253Z,100.00
2023-04-23T01:05:38.402Z,100.00
2023-04-23T01:08:04.921Z,100.00
2023-04-23T01:10:32.690Z,100.00
2023-04-23T01:12:59.148Z,100.00
2023-04-23T01:15:25.625Z,100.00
2023-04-23T01:17:53.681Z,100.00
2023-04-23T01:20:20.252Z,100.00
2023-04-23T01:22:46.802Z,100.00
2023-04-23T01:25:13.595Z,100.00
2023-04-23T01:27:40.950Z,100.00
2023-04-23T01:30:08.755Z,100.00
2023-04-23T01:32:35.918Z,100.00
2023-04-23T01:35:02.694Z,100.00
2023-04-23T01:37:30.396Z,100.00
2023-04-23T01:39:57.084Z,100.00
2023-04-23T01:42:23.554Z,100.00
2023-04-23T01:44:50.482Z,100.00
2023-04-23T01:47:19.557Z,100.00
2023-04-23T01:49:46.196Z,100.00
2023-04-23T01:52:12.778Z,100.00
2023-04-23T01:54:39.348Z,100.00
2023-04-23T01:57:06.020Z,100.00
2023-04-23T01:59:32.417Z,100.00
2023-04-23T02:01:59.252Z,100.00
2023-04-23T02:04:26.158Z,100.00
2023-04-23T02:06:52.789Z,100.00
2023-04-23T02:09:19.270Z,100.00
2023-04-23T02:11:45.747Z,100.00
2023-04-23T02:14:12.594Z,100.00
2023-04-23T02:16:39.554Z,100.00
2023-04-23T02:19:05.936Z,100.00
2023-04-23T02:21:32.465Z,100.00
2023-04-23T02:23:58.977Z,100.00
2023-04-23T02:26:25.475Z,100.00
2023-04-23T02:28:51.938Z,100.00
2023-04-23T02:31:20.723Z,100.00
2023-04-23T02:33:47.668Z,100.00
2023-04-23T02:36:14.228Z,100.00
2023-04-23T02:38:42.429Z,100.00
2023-04-23T02:41:09.088Z,100.00
2023-04-23T02:43:35.616Z,100.00
2023-04-23T02:46:08.187Z,100.00
2023-04-23T02:48:40.252Z,100.00
2023-04-23T02:51:08.971Z,100.00
2023-04-23T02:53:36.048Z,100.00
2023-04-23T02:56:02.939Z,100.00
2023-04-23T02:58:29.659Z,100.00
2023-04-23T03:00:56.703Z,100.00
2023-04-23T03:03:26.530Z,100.00
2023-04-23T03:05:54.103Z,100.00
2023-04-23T03:08:20.682Z,100.00
2023-04-23T03:10:47.087Z,100.00
2023-04-23T03:13:13.515Z,100.00
2023-04-23T03:15:40.649Z,100.00
2023-04-23T03:18:08.398Z,100.00
2023-04-23T03:20:35.797Z,100.00
2023-04-23T03:23:02.529Z,100.00
2023-04-23T03:25:28.964Z,100.00
2023-04-23T03:27:55.425Z,100.00
2023-04-23T03:30:21.963Z,100.00
2023-04-23T03:32:48.542Z,100.00
2023-04-23T03:35:14.974Z,100.00
2023-04-23T03:37:41.455Z,100.00
2023-04-23T03:40:09.270Z,100.00
2023-04-23T03:42:35.967Z,100.00
2023-04-23T03:45:02.423Z,100.00
2023-04-23T03:47:28.851Z,100.00
2023-04-23T03:49:55.590Z,100.00
2023-04-23T03:52:22.025Z,100.00
2023-04-23T03:54:48.500Z,100.00
2023-04-23T03:57:14.982Z,100.00
2023-04-23T03:59:41.402Z,100.00
2023-04-23T04:02:08.058Z,100.00
2023-04-23T04:04:34.929Z,100.00
2023-04-23T04:07:01.492Z,100.00
2023-04-23T04:09:28.793Z,100.00
2023-04-23T04:11:55.863Z,100.00
2023-04-23T04:14:23.218Z,100.00
2023-04-23T04:16:49.805Z,100.00
2023-04-23T04:19:16.299Z,100.00
2023-04-23T04:21:42.720Z,100.00
2023-04-23T04:24:11.335Z,100.00
2023-04-23T04:26:37.830Z,100.00
2023-04-23T04:29:04.648Z,100.00
2023-04-23T04:31:31.259Z,100.00
2023-04-23T04:33:58.383Z,100.00
2023-04-23T04:36:28.819Z,100.00
2023-04-23T04:38:58.699Z,100.00
2023-04-23T04:41:26.163Z,100.00
2023-04-23T04:43:52.716Z,100.00
2023-04-23T04:46:20.752Z,100.00
2023-04-23T04:48:48.024Z,100.00
2023-04-23T04:51:14.441Z,100.00
2023-04-23T04:53:40.850Z,100.00
2023-04-23T04:56:08.249Z,100.00
2023-04-23T04:58:34.865Z,100.00
2023-04-23T05:01:01.505Z,100.00
2023-04-23T05:03:28.264Z,100.00
2023-04-23T05:05:58.843Z,100.00
2023-04-23T05:08:25.564Z,100.00
2023-04-23T05:10:53.983Z,100.00
2023-04-23T05:13:20.542Z,100.00
2023-04-23T05:15:46.986Z,100.00
2023-04-23T05:18:13.651Z,100.00
2023-04-23T05:20:41.595Z,100.00
2023-04-23T05:23:08.028Z,100.00
2023-04-23T05:25:35.630Z,100.00
2023-04-23T05:28:02.503Z,100.00
2023-04-23T05:30:29.062Z,100.00
2023-04-23T05:32:55.669Z,100.00
2023-04-23T05:35:22.156Z,100.00
2023-04-23T05:37:48.518Z,100.00
2023-04-23T05:40:15.062Z,100.00
2023-04-23T05:42:41.458Z,100.00
2023-04-23T05:45:09.151Z,100.00
2023-04-23T05:47:36.442Z,100.00
2023-04-23T05:50:02.981Z,100.00
2023-04-23T05:52:33.360Z,100.00
2023-04-23T05:54:59.875Z,100.00
2023-04-23T05:57:26.654Z,100.00
2023-04-23T05:59:53.168Z,100.00
2023-04-23T06:02:20.498Z,100.00
2023-04-23T06:04:48.962Z,100.00
2023-04-23T06:07:16.132Z,100.00
2023-04-23T06:09:42.586Z,100.00
2023-04-23T06:12:10.569Z,100.00
2023-04-23T06:14:37.071Z,100.00
2023-04-23T06:17:03.650Z,100.00
2023-04-23T06:19:30.106Z,100.00
2023-04-23T06:21:56.584Z,100.00
2023-04-23T06:24:22.994Z,100.00
2023-04-23T06:26:49.468Z,100.00
2023-04-23T06:29:16.043Z,100.00
2023-04-23T06:31:42.702Z,100.00
2023-04-23T06:34:09.249Z,100.00
2023-04-23T06:36:35.704Z,100.00
2023-04-23T06:39:02.098Z,100.00
2023-04-23T06:41:28.692Z,100.00
2023-04-23T06:43:55.186Z,100.00
2023-04-23T06:46:21.693Z,100.00
2023-04-23T06:48:48.184Z,100.00
2023-04-23T06:51:14.851Z,100.00
2023-04-23T06:53:41.331Z,100.00
2023-04-23T06:56:08.364Z,100.00
2023-04-23T06:58:34.838Z,100.00
2023-04-23T07:01:04.119Z,100.00
2023-04-23T07:03:34.192Z,100.00
2023-04-23T07:06:01.225Z,100.00
2023-04-23T07:08:27.708Z,100.00
2023-04-23T07:10:54.143Z,100.00
2023-04-23T07:13:20.710Z,100.00
2023-04-23T07:15:47.277Z,100.00
2023-04-23T07:18:13.789Z,100.00
2023-04-23T07:20:40.282Z,100.00
2023-04-23T07:23:06.806Z,100.00
2023-04-23T07:25:33.546Z,100.00
2023-04-23T07:28:00.012Z,100.00
2023-04-23T07:30:27.436Z,100.00
2023-04-23T07:32:55.582Z,100.00
2023-04-23T07:35:22.121Z,100.00
2023-04-23T07:37:53.567Z,100.00
2023-04-23T07:40:24.395Z,100.00
2023-04-23T07:42:51.964Z,100.00
2023-04-23T07:45:19.529Z,100.00
2023-04-23T07:47:46.713Z,100.00
2023-04-23T07:50:13.749Z,100.00
2023-04-23T07:52:40.458Z,100.00
2023-04-23T07:55:07.725Z,100.00
2023-04-23T07:57:34.153Z,100.00
2023-04-23T08:00:00.917Z,100.00
2023-04-23T08:02:28.432Z,100.00
2023-04-23T08:04:55.253Z,100.00
2023-04-23T08:07:21.850Z,100.00
2023-04-23T08:09:48.781Z,100.00
2023-04-23T08:12:17.375Z,100.00
2023-04-23T08:14:44.877Z,100.00
2023-04-23T08:17:11.275Z,100.00
2023-04-23T08:19:37.738Z,100.00
2023-04-23T08:22:04.395Z,100.00
2023-04-23T08:24:30.904Z,100.00
2023-04-23T08:26:57.543Z,100.00
2023-04-23T08:29:23.958Z,100.00
2023-04-23T08:31:50.717Z,100.00
2023-04-23T08:34:17.128Z,100.00
2023-04-23T08:36:43.651Z,100.00
2023-04-23T08:39:10.130Z,100.00
2023-04-23T08:41:42.604Z,100.00
2023-04-23T08:44:26.176Z,100.00
2023-04-23T08:46:54.293Z,100.00
2023-04-23T08:49:20.720Z,100.00
2023-04-23T08:51:52.939Z,100.00
2023-04-23T08:54:27.020Z,100.00
2023-04-23T08:56:58.388Z,100.00
2023-04-23T08:59:34.432Z,100.00
2023-04-23T09:02:07.830Z,100.00
2023-04-23T09:04:35.543Z,100.00
2023-04-23T09:07:02.144Z,100.00
2023-04-23T09:09:30.158Z,100.00
2023-04-23T09:11:57.613Z,100.00
2023-04-23T09:14:25.609Z,100.00
2023-04-23T09:16:52.890Z,100.00
2023-04-23T09:19:19.472Z,100.00
2023-04-23T09:21:46.729Z,100.00
2023-04-23T09:24:14.785Z,100.00
2023-04-23T09:26:46.721Z,100.00
2023-04-23T09:29:18.442Z,100.00
2023-04-23T09:31:47.823Z,100.00
2023-04-23T09:34:19.291Z,100.00
2023-04-23T09:36:47.550Z,100.00
2023-04-23T09:39:16.038Z,100.00
2023-04-23T09:41:42.711Z,100.00
2023-04-23T09:44:09.254Z,100.00
2023-04-23T09:46:37.921Z,99.42
2023-04-23T09:49:08.129Z,96.17
2023-04-23T09:51:42.630Z,92.07
2023-04-23T09:54:17.814Z,92.47
2023-04-23T09:56:45.201Z,92.74
2023-04-23T09:59:39.407Z,89.28
2023-04-23T10:02:12.058Z,92.50
2023-04-23T10:04:39.697Z,91.04
2023-04-23T10:07:18.828Z,89.42
2023-04-23T10:09:46.728Z,86.35
2023-04-23T10:12:31.438Z,84.15
2023-04-23T10:15:00.495Z,81.33
2023-04-23T10:17:27.329Z,80.89
2023-04-23T10:19:55.564Z,77.76
2023-04-23T10:22:23.041Z,75.70
2023-04-23T10:24:55.843Z,72.93
2023-04-23T10:27:36.661Z,73.69
2023-04-23T10:30:10.789Z,71.24
2023-04-23T10:32:41.233Z,67.78
2023-04-23T10:35:09.348Z,69.01
2023-04-23T10:37:37.482Z,67.37
2023-04-23T10:40:09.226Z,68.88
2023-04-23T10:42:35.924Z,70.94
2023-04-23T10:45:20.350Z,69.66
2023-04-23T10:47:50.323Z,71.23
2023-04-23T10:50:22.477Z,68.37
2023-04-23T10:52:53.317Z,67.26
2023-04-23T10:55:25.574Z,67.06
2023-04-23T10:58:03.272Z,65.35
2023-04-23T11:00:45.837Z,65.19
2023-04-23T11:03:39.768Z,64.38
2023-04-23T11:06:12.386Z,65.47
2023-04-23T11:08:52.729Z,60.99
2023-04-23T11:11:24.679Z,61.49
2023-04-23T11:13:53.300Z,60.01
2023-04-23T11:16:23.845Z,61.63
2023-04-23T11:19:04.803Z,59.81
2023-04-23T11:22:02.093Z,55.76
2023-04-23T11:24:33.470Z,58.14
2023-04-23T11:27:01.454Z,57.19
2023-04-23T11:29:28.601Z,56.69
2023-04-23T11:34:26.231Z,55.45
2023-04-23T11:36:57.309Z,55.42
2023-04-23T11:39:24.294Z,55.69
2023-04-23T11:41:52.318Z,56.16
2023-04-23T11:44:20.821Z,56.75
2023-04-23T11:46:49.219Z,56.47
2023-04-23T11:49:17.279Z,56.74
2023-04-23T11:51:45.449Z,57.62
2023-04-23T11:54:13.450Z,57.79
2023-04-23T11:56:40.987Z,60.02
2023-04-23T11:59:08.151Z,61.68
2023-04-23T12:01:48.785Z,62.11
2023-04-23T12:04:17.281Z,62.41
2023-04-23T12:06:45.941Z,62.43
2023-04-23T12:09:14.012Z,60.12
2023-04-23T12:11:42.410Z,59.46
2023-04-23T12:14:10.593Z,59.55
2023-04-23T12:16:42.224Z,57.78
2023-04-23T12:19:20.648Z,57.35
2023-04-23T12:21:56.441Z,53.77
2023-04-23T12:24:27.268Z,55.30
2023-04-23T12:26:55.986Z,55.22
2023-04-23T12:29:23.178Z,55.00
2023-04-23T12:31:52.246Z,55.36
2023-04-23T12:34:20.588Z,55.44
2023-04-23T12:36:49.549Z,54.74
2023-04-23T12:39:32.200Z,51.06
2023-04-23T12:42:01.399Z,51.42
2023-04-23T12:44:28.843Z,49.68
2023-04-23T12:46:58.146Z,50.12
2023-04-23T12:49:27.125Z,49.87
2023-04-23T12:51:57.492Z,49.60
2023-04-23T12:54:26.543Z,49.23
2023-04-23T12:56:53.394Z,48.75
2023-04-23T12:59:19.843Z,49.13
2023-04-23T13:01:46.364Z,49.53
2023-04-23T13:04:13.201Z,49.82
2023-04-23T13:06:40.352Z,49.91
2023-04-23T13:09:09.652Z,50.18
2023-04-23T13:11:40.384Z,50.05
2023-04-23T13:14:07.560Z,50.45
2023-04-23T13:16:34.213Z,50.25
2023-04-23T13:19:01.233Z,50.35
2023-04-23T13:21:27.773Z,50.72
2023-04-23T13:23:54.190Z,50.97
2023-04-23T13:26:20.693Z,51.12
2023-04-23T13:28:47.209Z,51.63
2023-04-23T13:31:13.805Z,51.77
2023-04-23T13:33:41.054Z,51.68
2023-04-23T13:36:08.014Z,51.36
2023-04-23T13:38:34.842Z,51.66
2023-04-23T13:41:01.375Z,50.92
2023-04-23T13:43:27.829Z,51.79
2023-04-23T13:45:54.894Z,51.52
2023-04-23T13:48:21.690Z,51.34
2023-04-23T13:50:48.141Z,51.22
2023-04-23T13:53:14.730Z,51.47
2023-04-23T13:55:41.346Z,51.12
2023-04-23T13:58:07.995Z,50.98
2023-04-23T14:00:34.636Z,51.40
2023-04-23T14:03:01.189Z,52.01
2023-04-23T14:05:27.771Z,52.76
2023-04-23T14:07:54.215Z,52.40
2023-04-23T14:10:20.679Z,52.10
2023-04-23T14:12:47.321Z,52.49
2023-04-23T14:15:14.446Z,52.83
2023-04-23T14:17:42.943Z,53.25
2023-04-23T14:20:10.299Z,53.35
2023-04-23T14:22:36.954Z,52.82
2023-04-23T14:25:15.556Z,52.44
2023-04-23T14:27:49.964Z,52.02
2023-04-23T14:30:20.254Z,52.32
2023-04-23T14:32:49.915Z,52.20
2023-04-23T14:35:17.391Z,52.29
2023-04-23T14:37:45.392Z,52.34
2023-04-23T14:40:15.714Z,52.73
2023-04-23T14:42:42.156Z,53.18
2023-04-23T14:45:09.055Z,52.08
2023-04-23T14:47:35.488Z,52.33
2023-04-23T14:50:02.011Z,51.88
2023-04-23T14:52:28.557Z,52.33
2023-04-23T14:54:55.897Z,51.74
2023-04-23T14:57:22.723Z,51.91
2023-04-23T14:59:49.166Z,52.25
2023-04-23T15:02:15.934Z,52.48
2023-04-23T15:04:42.480Z,52.39
2023-04-23T15:07:08.891Z,53.01
2023-04-23T15:09:35.299Z,52.38
2023-04-23T15:12:04.099Z,52.73
2023-04-23T15:14:37.440Z,52.95
2023-04-23T15:17:03.910Z,54.17
2023-04-23T15:19:31.278Z,54.76
2023-04-23T15:21:57.737Z,55.93
2023-04-23T15:24:24.193Z,57.69
2023-04-23T15:26:53.204Z,61.01
2023-04-23T15:29:20.080Z,65.11
2023-04-23T15:31:46.573Z,70.72
2023-04-23T15:34:13.133Z,75.25
2023-04-23T15:36:39.688Z,79.83
2023-04-23T15:39:09.639Z,85.23
2023-04-23T15:41:39.312Z,84.04
2023-04-23T15:44:09.499Z,86.97
2023-04-23T15:46:36.074Z,89.00
2023-04-23T15:49:05.055Z,89.96
2023-04-23T15:51:32.957Z,91.41
2023-04-23T15:54:00.652Z,94.43
2023-04-23T15:56:27.074Z,97.35
2023-04-23T15:58:53.496Z,100.00
2023-04-23T16:01:20.067Z,100.00
2023-04-23T16:03:57.968Z,100.00
2023-04-23T16:06:33.024Z,100.00
2023-04-23T16:08:59.574Z,100.00
2023-04-23T16:11:28.238Z,100.00
2023-04-23T16:13:56.099Z,100.00
2023-04-23T16:16:22.514Z,100.00
2023-04-23T16:18:49.484Z,100.00
2023-04-23T16:21:16.088Z,100.00
2023-04-23T16:23:42.638Z,100.00
2023-04-23T16:26:09.083Z,100.00
2023-04-23T16:28:35.605Z,100.00
2023-04-23T16:31:02.110Z,100.00
2023-04-23T16:33:30.395Z,100.00
2023-04-23T16:35:57.156Z,100.00
2023-04-23T16:38:23.788Z,100.00
2023-04-23T16:40:51.463Z,100.00
2023-04-23T16:43:17.965Z,100.00
2023-04-23T16:45:44.502Z,100.00
2023-04-23T16:48:13.902Z,100.00
2023-04-23T16:50:42.688Z,100.00
2023-04-23T16:53:09.826Z,100.00
2023-04-23T16:55:39.493Z,100.00
2023-04-23T16:58:06.570Z,100.00
2023-04-23T17:00:33.036Z,100.00
2023-04-23T17:02:59.532Z,100.00
2023-04-23T17:05:26.082Z,100.00
2023-04-23T17:07:53.268Z,100.00
2023-04-23T17:10:19.837Z,100.00
2023-04-23T17:12:46.272Z,100.00
2023-04-23T17:15:12.649Z,100.00
2023-04-23T17:17:39.117Z,100.00
2023-04-23T17:20:07.061Z,100.00
2023-04-23T17:22:34.612Z,100.00
2023-04-23T17:25:01.004Z,100.00
2023-04-23T17:27:27.471Z,100.00
2023-04-23T17:29:53.926Z,100.00
2023-04-23T17:32:20.615Z,100.00
2023-04-23T17:34:49.529Z,100.00
2023-04-23T17:37:21.678Z,100.00
2023-04-23T17:39:48.100Z,100.00
2023-04-23T17:42:14.581Z,100.00
2023-04-23T17:44:41.807Z,100.00
2023-04-23T17:47:10.184Z,100.00
2023-04-23T17:49:36.691Z,100.00
2023-04-23T17:52:03.469Z,100.00
2023-04-23T17:54:29.893Z,100.00
2023-04-23T17:56:56.244Z,100.00
2023-04-23T17:59:22.683Z,100.00
2023-04-23T18:01:49.424Z,100.00
2023-04-23T18:04:17.658Z,100.00
2023-04-23T18:06:44.484Z,100.00
2023-04-23T18:09:10.950Z,100.00
2023-04-23T18:11:37.760Z,100.00
2023-04-23T18:14:04.217Z,100.00
2023-04-23T18:16:30.833Z,100.00
2023-04-23T18:18:57.372Z,100.00
2023-04-23T18:21:23.810Z,100.00
2023-04-23T18:23:50.208Z,100.00
2023-04-23T18:26:16.610Z,100.00
2023-04-23T18:28:43.017Z,100.00
2023-04-23T18:31:09.648Z,100.00
2023-04-23T18:33:41.895Z,100.00
2023-04-23T18:36:23.980Z,100.00
2023-04-23T18:38:50.586Z,100.00
2023-04-23T18:41:17.155Z,100.00
2023-04-23T18:43:43.795Z,100.00
2023-04-23T18:46:10.415Z,100.00
2023-04-23T18:48:46.334Z,100.00
2023-04-23T18:51:37.195Z,100.00
2023-04-23T18:54:04.287Z,100.00
2023-04-23T18:56:30.793Z,100.00
2023-04-23T18:58:57.225Z,100.00
2023-04-23T19:01:24.432Z,100.00
2023-04-23T19:03:50.989Z,100.00
2023-04-23T19:06:17.475Z,100.00
2023-04-23T19:08:43.880Z,100.00
2023-04-23T19:11:10.314Z,100.00
2023-04-23T19:13:36.794Z,100.00
2023-04-23T19:16:03.412Z,100.00
2023-04-23T19:18:30.054Z,100.00
2023-04-23T19:20:56.558Z,100.00
2023-04-23T19:23:22.983Z,100.00
2023-04-23T19:25:49.391Z,100.00
2023-04-23T19:28:15.786Z,100.00
2023-04-23T19:30:42.284Z,100.00
2023-04-23T19:33:08.817Z,100.00
2023-04-23T19:35:36.765Z,100.00
2023-04-23T19:38:04.462Z,100.00
2023-04-23T19:40:30.907Z,100.00
2023-04-23T19:42:57.327Z,100.00
2023-04-23T19:45:23.816Z,100.00
2023-04-23T19:47:50.815Z,100.00
2023-04-23T19:50:17.873Z,100.00
2023-04-23T19:52:44.299Z,100.00
2023-04-23T19:55:10.905Z,100.00
2023-04-23T19:57:37.688Z,100.00
2023-04-23T20:00:12.313Z,100.00
2023-04-23T20:02:38.864Z,100.00
2023-04-23T20:05:06.136Z,100.00
2023-04-23T20:07:32.755Z,100.00
2023-04-23T20:09:59.171Z,100.00
2023-04-23T20:12:25.629Z,100.00
2023-04-23T20:14:52.347Z,100.00
2023-04-23T20:17:18.791Z,100.00
2023-04-23T20:19:45.437Z,100.00
2023-04-23T20:22:12.071Z,100.00
2023-04-23T20:24:40.346Z,100.00
2023-04-23T20:27:07.016Z,100.00
2023-04-23T20:29:33.600Z,100.00
2023-04-23T20:32:00.144Z,100.00
2023-04-23T20:34:27.052Z,100.00
2023-04-23T20:36:53.625Z,100.00
2023-04-23T20:39:20.993Z,100.00
2023-04-23T20:41:47.612Z,100.00
2023-04-23T20:44:14.151Z,100.00
2023-04-23T20:46:40.935Z,100.00
2023-04-23T20:49:07.493Z,100.00
2023-04-23T20:51:34.255Z,100.00
2023-04-23T20:54:01.586Z,100.00
2023-04-23T20:56:28.393Z,100.00
2023-04-23T20:58:54.854Z,100.00
2023-04-23T21:01:21.598Z,100.00
2023-04-23T21:03:48.747Z,100.00
2023-04-23T21:06:15.468Z,100.00
2023-04-23T21:08:42.697Z,100.00
2023-04-23T21:11:13.623Z,100.00
2023-04-23T21:13:40.785Z,100.00
2023-04-23T21:16:07.284Z,100.00
2023-04-23T21:18:33.826Z,100.00
2023-04-23T21:21:00.611Z,100.00
2023-04-23T21:23:27.118Z,100.00
2023-04-23T21:25:53.586Z,100.00
2023-04-23T21:28:20.235Z,100.00
2023-04-23T21:30:48.557Z,100.00
2023-04-23T21:33:16.590Z,100.00
2023-04-23T21:35:43.812Z,100.00
2023-04-23T21:38:11.316Z,100.00
2023-04-23T21:40:38.881Z,100.00
2023-04-23T21:43:06.771Z,100.00
2023-04-23T21:45:33.868Z,100.00
2023-04-23T21:48:01.026Z,100.00
2023-04-23T21:50:28.709Z,100.00
2023-04-23T21:52:58.223Z,100.00
2023-04-23T21:55:28.931Z,100.00
2023-04-23T21:58:03.168Z,100.00
2023-04-23T22:00:33.210Z,100.00
2023-04-23T22:03:00.811Z,100.00
2023-04-23T22:05:28.486Z,100.00
2023-04-23T22:07:56.980Z,100.00
2023-04-23T22:10:23.915Z,100.00
2023-04-23T22:12:50.727Z,100.00
2023-04-23T22:15:19.036Z,100.00
2023-04-23T22:17:50.346Z,100.00
2023-04-23T22:20:18.945Z,100.00
2023-04-23T22:22:45.850Z,100.00
2023-04-23T22:25:13.034Z,100.00
2023-04-23T22:27:41.034Z,100.00
2023-04-23T22:30:09.525Z,100.00
2023-04-23T22:32:36.677Z,100.00
2023-04-23T22:35:03.559Z,100.00
2023-04-23T22:37:31.355Z,100.00
2023-04-23T22:39:57.835Z,100.00
2023-04-23T22:42:24.213Z,100.00
2023-04-23T22:44:50.625Z,100.00
2023-04-23T22:47:17.781Z,100.00
2023-04-23T22:49:44.518Z,100.00
2023-04-23T22:52:15.089Z,100.00
2023-04-23T22:54:41.950Z,100.00
2023-04-23T22:57:09.037Z,100.00
2023-04-23T22:59:36.156Z,100.00
2023-04-23T23:02:02.534Z,100.00
2023-04-23T23:04:29.057Z,100.00
2023-04-23T23:06:56.326Z,100.00
2023-04-23T23:09:22.732Z,100.00
2023-04-23T23:11:49.103Z,100.00
2023-04-23T23:14:16.895Z,100.00
2023-04-23T23:16:43.348Z,100.00
2023-04-23T23:19:09.797Z,100.00
2023-04-23T23:21:36.219Z,100.00
2023-04-23T23:24:02.613Z,100.00
2023-04-23T23:26:29.083Z,100.00
2023-04-23T23:28:55.616Z,100.00
2023-04-23T23:31:25.774Z,100.00
2023-04-23T23:33:53.170Z,100.00
2023-04-23T23:36:19.769Z,100.00
2023-04-23T23:38:46.240Z,100.00
2023-04-23T23:41:12.792Z,100.00
2023-04-23T23:43:39.567Z,100.00
2023-04-23T23:46:06.067Z,100.00
2023-04-23T23:48:32.560Z,100.00
2023-04-23T23:50:59.018Z,100.00
2023-04-23T23:53:25.482Z,100.00
2023-04-23T23:55:51.958Z,100.00
2023-04-23T23:58:18.358Z,100.00
